createdAt,value
2022-12-13T00:01:35.332Z,14.07
2022-12-13T00:04:05.705Z,17.83
2022-12-13T00:06:33.817Z,17.20
2022-12-13T00:09:02.525Z,17.03
2022-12-13T00:11:30.369Z,17.40
2022-12-13T00:13:58.309Z,15.73
2022-12-13T00:16:28.520Z,17.17
2022-12-13T00:18:58.449Z,14.50
2022-12-13T00:21:28.641Z,16.00
2022-12-13T00:23:56.630Z,17.00
2022-12-13T00:26:27.861Z,14.77
2022-12-13T00:28:55.856Z,14.40
2022-12-13T00:34:15.012Z,13.07
2022-12-13T00:36:42.840Z,14.17
2022-12-13T00:39:13.786Z,15.73
2022-12-13T00:41:41.836Z,15.03
2022-12-13T00:44:11.416Z,15.53
2022-12-13T00:46:39.967Z,15.33
2022-12-13T00:49:08.218Z,14.50
2022-12-13T00:51:37.788Z,14.97
2022-12-13T00:54:05.715Z,15.97
2022-12-13T00:56:34.704Z,17.13
2022-12-13T00:59:02.573Z,16.87
2022-12-13T01:01:32.978Z,15.27
2022-12-13T01:04:03.292Z,16.60
2022-12-13T01:06:35.016Z,15.70
2022-12-13T01:09:05.401Z,17.00
2022-12-13T01:11:33.519Z,15.97
2022-12-13T01:14:01.561Z,16.20
2022-12-13T01:16:29.423Z,16.43
2022-12-13T01:18:58.184Z,17.03
2022-12-13T01:21:26.097Z,14.27
2022-12-13T01:23:53.983Z,16.03
2022-12-13T01:26:23.224Z,14.53
2022-12-13T01:28:51.879Z,16.80
2022-12-13T01:31:21.316Z,15.13
2022-12-13T01:33:49.927Z,16.70
2022-12-13T01:36:18.953Z,15.73
2022-12-13T01:38:47.195Z,15.60
2022-12-13T01:41:17.560Z,16.07
2022-12-13T01:43:57.508Z,16.70
2022-12-13T01:46:25.476Z,14.13
2022-12-13T01:49:04.521Z,15.50
2022-12-13T01:51:37.274Z,15.33
2022-12-13T01:54:07.557Z,14.40
2022-12-13T01:56:39.856Z,15.77
2022-12-13T01:59:11.739Z,15.83
2022-12-13T02:01:40.365Z,14.80
2022-12-13T02:04:08.859Z,14.13
2022-12-13T02:06:39.533Z,16.07
2022-12-13T02:09:09.192Z,15.67
2022-12-13T02:11:39.792Z,16.60
2022-12-13T02:14:09.806Z,14.40
2022-12-13T02:16:47.978Z,14.87
2022-12-13T02:19:47.400Z,16.03
2022-12-13T02:22:34.017Z,16.00
2022-12-13T02:25:19.526Z,15.37
2022-12-13T02:28:30.814Z,16.23
2022-12-13T02:31:09.975Z,15.43
2022-12-13T02:33:51.346Z,14.60
2022-12-13T02:36:26.203Z,15.07
2022-12-13T02:39:00.238Z,15.23
2022-12-13T02:41:34.364Z,14.57
2022-12-13T02:44:21.759Z,16.40
2022-12-13T02:46:55.880Z,15.17
2022-12-13T02:49:26.564Z,16.17
2022-12-13T02:51:55.420Z,17.27
2022-12-13T02:54:24.581Z,15.80
2022-12-13T02:56:56.603Z,15.17
2022-12-13T02:59:26.958Z,13.90
2022-12-13T03:02:10.457Z,14.60
2022-12-13T03:05:05.455Z,14.83
2022-12-13T03:07:42.333Z,15.20
2022-12-13T03:10:16.776Z,15.70
2022-12-13T03:13:10.794Z,14.20
2022-12-13T03:15:45.935Z,15.83
2022-12-13T03:18:18.901Z,15.50
2022-12-13T03:20:48.507Z,14.47
2022-12-13T03:23:17.256Z,16.23
2022-12-13T03:25:46.797Z,14.90
2022-12-13T03:28:14.669Z,14.40
2022-12-13T03:30:42.524Z,15.60
2022-12-13T03:33:10.378Z,14.60
2022-12-13T03:35:44.628Z,14.73
2022-12-13T03:38:21.881Z,14.63
2022-12-13T03:40:52.884Z,14.47
2022-12-13T03:43:22.361Z,16.20
2022-12-13T03:45:50.851Z,15.50
2022-12-13T03:48:22.339Z,16.60
2022-12-13T03:50:53.630Z,16.47
2022-12-13T03:53:22.389Z,15.90
2022-12-13T03:56:01.441Z,16.37
2022-12-13T03:58:35.236Z,18.20
2022-12-13T04:01:05.595Z,17.20
2022-12-13T04:03:33.519Z,17.80
2022-12-13T04:06:04.105Z,15.50
2022-12-13T04:08:32.082Z,15.40
2022-12-13T04:10:59.928Z,15.30
2022-12-13T04:13:32.496Z,14.23
2022-12-13T04:16:00.557Z,15.77
2022-12-13T04:18:28.764Z,15.50
2022-12-13T04:20:57.317Z,15.30
2022-12-13T04:23:26.578Z,15.17
2022-12-13T04:25:54.612Z,16.00
2022-12-13T04:28:23.291Z,15.17
2022-12-13T04:30:52.704Z,16.60
2022-12-13T04:33:22.060Z,14.90
2022-12-13T04:35:50.349Z,15.47
2022-12-13T04:38:18.603Z,15.70
2022-12-13T04:40:47.841Z,15.50
2022-12-13T04:43:15.734Z,16.17
2022-12-13T04:45:43.779Z,16.73
2022-12-13T04:48:11.821Z,14.60
2022-12-13T04:50:39.665Z,16.23
2022-12-13T04:53:07.496Z,15.53
2022-12-13T04:55:35.370Z,14.87
2022-12-13T04:58:04.552Z,15.20
2022-12-13T05:00:32.502Z,15.70
2022-12-13T05:03:00.453Z,15.77
2022-12-13T05:05:28.296Z,16.03
2022-12-13T05:07:56.720Z,15.60
2022-12-13T05:10:33.926Z,15.43
2022-12-13T05:13:07.503Z,16.80
2022-12-13T05:15:35.538Z,16.17
2022-12-13T05:18:10.757Z,14.20
2022-12-13T05:20:40.128Z,13.57
2022-12-13T05:23:08.345Z,14.33
2022-12-13T05:25:36.812Z,14.53
2022-12-13T05:28:08.718Z,16.37
2022-12-13T05:30:55.477Z,17.37
2022-12-13T05:33:24.487Z,15.60
2022-12-13T05:35:57.657Z,15.83
2022-12-13T05:38:27.820Z,16.13
2022-12-13T05:40:55.658Z,17.13
2022-12-13T05:43:24.940Z,15.30
2022-12-13T05:46:11.870Z,14.57
2022-12-13T05:48:39.805Z,16.20
2022-12-13T05:51:10.438Z,15.30
2022-12-13T05:53:39.487Z,14.50
2022-12-13T05:56:08.062Z,13.07
2022-12-13T05:58:38.100Z,16.03
2022-12-13T06:01:07.808Z,14.43
2022-12-13T06:03:35.980Z,14.60
2022-12-13T06:06:04.683Z,14.23
2022-12-13T06:08:32.911Z,14.03
2022-12-13T06:11:11.116Z,14.33
2022-12-13T06:13:43.479Z,14.27
2022-12-13T06:16:21.669Z,13.20
2022-12-13T06:18:54.480Z,14.50
2022-12-13T06:21:27.269Z,13.23
2022-12-13T06:23:55.825Z,11.60
2022-12-13T06:26:23.673Z,13.27
2022-12-13T06:28:52.853Z,13.23
2022-12-13T06:31:20.716Z,12.73
2022-12-13T06:33:48.583Z,12.80
2022-12-13T06:36:16.404Z,15.00
2022-12-13T06:38:44.262Z,15.60
2022-12-13T06:41:17.060Z,15.83
2022-12-13T06:43:45.792Z,15.93
2022-12-13T06:46:16.360Z,14.27
2022-12-13T06:48:44.987Z,15.30
2022-12-13T06:51:13.131Z,15.77
2022-12-13T06:53:51.028Z,13.93
2022-12-13T06:56:18.921Z,14.87
2022-12-13T06:58:46.935Z,14.70
2022-12-13T07:01:24.045Z,13.60
2022-12-13T07:03:55.805Z,14.57
2022-12-13T07:06:25.492Z,14.40
2022-12-13T07:08:55.470Z,16.13
2022-12-13T07:11:25.637Z,15.23
2022-12-13T07:13:53.908Z,15.50
2022-12-13T07:16:24.037Z,15.20
2022-12-13T07:19:01.115Z,13.97
2022-12-13T07:21:30.455Z,16.47
2022-12-13T07:23:58.570Z,15.93
2022-12-13T07:26:26.624Z,12.50
2022-12-13T07:28:55.550Z,13.43
2022-12-13T07:31:26.720Z,13.47
2022-12-13T07:33:54.592Z,13.53
2022-12-13T07:36:24.076Z,13.70
2022-12-13T07:38:53.260Z,13.63
2022-12-13T07:41:23.485Z,13.80
2022-12-13T07:43:55.477Z,15.20
2022-12-13T07:46:31.783Z,13.60
2022-12-13T07:49:01.503Z,14.47
2022-12-13T07:51:29.771Z,14.30
2022-12-13T07:53:58.302Z,16.27
2022-12-13T07:56:26.122Z,16.13
2022-12-13T07:58:53.962Z,17.47
2022-12-13T08:01:21.871Z,16.40
2022-12-13T08:03:51.284Z,18.47
2022-12-13T08:06:19.914Z,16.67
2022-12-13T08:08:50.690Z,16.23
2022-12-13T08:11:18.589Z,18.60
2022-12-13T08:13:46.474Z,17.57
2022-12-13T08:16:28.072Z,19.70
2022-12-13T08:19:00.981Z,17.00
2022-12-13T08:24:24.545Z,15.47
2022-12-13T08:26:52.448Z,16.17
2022-12-13T08:29:32.114Z,17.03
2022-12-13T08:32:02.280Z,15.50
2022-12-13T08:34:31.744Z,15.87
2022-12-13T08:37:02.651Z,17.33
2022-12-13T08:39:33.964Z,16.77
2022-12-13T08:42:15.337Z,19.37
2022-12-13T08:44:45.287Z,17.37
2022-12-13T08:47:13.402Z,17.00
2022-12-13T08:49:55.153Z,18.50
2022-12-13T08:52:24.011Z,20.17
2022-12-13T08:54:52.343Z,19.80
2022-12-13T08:57:20.375Z,19.20
2022-12-13T08:59:48.281Z,17.70
2022-12-13T09:02:16.822Z,18.00
2022-12-13T09:04:44.727Z,17.90
2022-12-13T09:07:14.088Z,19.40
2022-12-13T09:09:41.943Z,19.77
2022-12-13T09:12:10.218Z,18.57
2022-12-13T09:14:45.042Z,18.17
2022-12-13T09:17:14.710Z,18.23
2022-12-13T09:19:58.047Z,17.77
2022-12-13T09:22:33.448Z,17.60
2022-12-13T09:25:02.798Z,18.70
2022-12-13T09:27:39.566Z,18.33
2022-12-13T09:30:12.866Z,19.10
2022-12-13T09:32:41.422Z,16.97
2022-12-13T09:35:09.927Z,18.27
2022-12-13T09:37:45.529Z,18.23
2022-12-13T09:40:26.076Z,18.83
2022-12-13T09:43:12.414Z,18.63
2022-12-13T09:45:46.352Z,17.83
2022-12-13T09:48:22.782Z,18.70
2022-12-13T09:51:16.553Z,16.53
2022-12-13T09:53:42.371Z,17.30
2022-12-13T09:56:13.346Z,21.33
2022-12-13T09:58:41.224Z,18.57
2022-12-13T10:01:12.681Z,18.80
2022-12-13T10:03:42.524Z,18.10
2022-12-13T10:06:23.095Z,19.43
2022-12-13T10:08:57.184Z,18.20
2022-12-13T10:11:32.700Z,17.80
2022-12-13T10:14:05.452Z,15.87
2022-12-13T10:16:43.706Z,17.90
2022-12-13T10:19:29.098Z,17.60
2022-12-13T10:22:01.690Z,17.67
2022-12-13T10:24:49.805Z,17.37
2022-12-13T10:27:19.639Z,18.10
2022-12-13T10:30:08.271Z,18.27
2022-12-13T10:32:46.884Z,18.70
2022-12-13T10:35:24.126Z,16.77
2022-12-13T10:37:52.365Z,16.80
2022-12-13T10:40:34.617Z,17.80
2022-12-13T10:43:12.722Z,16.93
2022-12-13T10:45:41.231Z,16.70
2022-12-13T10:48:21.077Z,17.23
2022-12-13T10:50:59.832Z,17.27
2022-12-13T10:53:32.050Z,17.40
2022-12-13T10:56:02.804Z,17.40
2022-12-13T10:58:39.300Z,17.70
2022-12-13T11:01:23.834Z,17.77
2022-12-13T11:04:01.846Z,15.80
2022-12-13T11:06:43.509Z,17.60
2022-12-13T11:09:23.124Z,17.27
2022-12-13T11:11:58.137Z,16.77
2022-12-13T11:14:32.099Z,17.90
2022-12-13T11:17:06.460Z,17.67
2022-12-13T11:19:40.031Z,17.87
2022-12-13T11:22:10.381Z,17.30
2022-12-13T11:24:42.164Z,16.43
2022-12-13T11:27:38.548Z,17.40
2022-12-13T11:30:16.464Z,17.20
2022-12-13T11:33:07.441Z,15.47
2022-12-13T11:35:46.700Z,15.23
2022-12-13T11:38:26.357Z,15.77
2022-12-13T11:40:59.863Z,15.90
2022-12-13T11:43:34.964Z,18.43
2022-12-13T11:46:14.470Z,17.60
2022-12-13T11:48:47.341Z,17.57
2022-12-13T11:51:20.739Z,16.20
2022-12-13T11:53:56.214Z,16.57
2022-12-13T11:56:27.484Z,18.10
2022-12-13T11:59:07.116Z,18.00
2022-12-13T12:01:47.307Z,16.67
2022-12-13T12:04:24.684Z,16.83
2022-12-13T12:07:04.992Z,16.10
2022-12-13T12:09:51.389Z,18.53
2022-12-13T12:12:27.516Z,19.40
2022-12-13T12:15:05.160Z,17.30
2022-12-13T12:17:43.269Z,17.27
2022-12-13T12:20:14.374Z,17.23
2022-12-13T12:23:00.188Z,18.10
2022-12-13T12:25:36.621Z,19.03
2022-12-13T12:28:15.021Z,17.57
2022-12-13T12:30:54.500Z,18.03
2022-12-13T12:33:33.688Z,19.10
2022-12-13T12:36:22.978Z,17.87
2022-12-13T12:39:20.468Z,18.00
2022-12-13T12:42:07.652Z,19.00
2022-12-13T12:44:45.364Z,18.00
2022-12-13T12:48:03.603Z,17.83
2022-12-13T12:50:36.292Z,17.93
2022-12-13T12:53:32.996Z,16.43
2022-12-13T12:56:16.957Z,18.50
2022-12-13T12:58:51.442Z,17.33
2022-12-13T13:01:34.680Z,18.80
2022-12-13T13:04:10.261Z,19.10
2022-12-13T13:06:42.618Z,17.10
2022-12-13T13:09:12.653Z,17.40
2022-12-13T13:11:43.610Z,16.97
2022-12-13T13:14:33.027Z,17.00
2022-12-13T13:17:01.902Z,18.87
2022-12-13T13:19:46.679Z,18.37
2022-12-13T13:22:32.615Z,18.80
2022-12-13T13:25:21.364Z,17.90
2022-12-13T13:27:52.226Z,18.37
2022-12-13T13:30:21.873Z,18.30
2022-12-13T13:32:51.517Z,18.30
2022-12-13T13:35:56.501Z,19.67
2022-12-13T13:38:44.897Z,19.57
2022-12-13T13:41:41.138Z,18.17
2022-12-13T13:44:35.329Z,19.37
2022-12-13T13:47:13.275Z,18.23
2022-12-13T13:49:52.425Z,17.40
2022-12-13T13:52:26.652Z,20.03
2022-12-13T13:55:38.476Z,18.27
2022-12-13T13:58:39.961Z,19.33
2022-12-13T14:01:44.066Z,17.60
2022-12-13T14:04:48.189Z,19.27
2022-12-13T14:07:48.505Z,18.50
2022-12-13T14:10:30.103Z,18.93
2022-12-13T14:13:38.737Z,17.77
2022-12-13T14:17:14.241Z,19.33
2022-12-13T14:20:18.007Z,18.40
2022-12-13T14:22:49.836Z,17.67
2022-12-13T14:25:46.434Z,18.07
2022-12-13T14:28:27.320Z,18.30
2022-12-13T14:30:57.426Z,18.63
2022-12-13T14:33:28.165Z,19.73
2022-12-13T14:35:57.783Z,18.17
2022-12-13T14:38:30.862Z,19.93
2022-12-13T14:41:02.511Z,18.60
2022-12-13T14:43:32.268Z,18.50
2022-12-13T14:46:02.296Z,15.73
2022-12-13T14:48:33.275Z,17.70
2022-12-13T14:51:01.183Z,18.23
2022-12-13T14:53:34.405Z,17.73
2022-12-13T14:56:09.677Z,15.93
2022-12-13T14:58:38.360Z,17.73
2022-12-13T15:01:06.949Z,17.00
2022-12-13T15:03:35.847Z,16.40
2022-12-13T15:06:04.531Z,18.80
2022-12-13T15:08:35.106Z,18.47
2022-12-13T15:11:08.103Z,18.50
2022-12-13T15:13:42.158Z,21.27
2022-12-13T15:16:25.555Z,18.60
2022-12-13T15:19:10.768Z,18.93
2022-12-13T15:21:38.989Z,17.17
2022-12-13T15:24:08.028Z,18.80
2022-12-13T15:26:36.222Z,20.17
2022-12-13T15:29:10.428Z,18.80
2022-12-13T15:31:39.824Z,18.30
2022-12-13T15:34:29.472Z,18.70
2022-12-13T15:37:01.130Z,17.90
2022-12-13T15:39:31.044Z,16.03
2022-12-13T15:41:59.599Z,26.00
2022-12-13T15:44:31.646Z,27.77
2022-12-13T15:47:03.883Z,22.47
2022-12-13T15:49:35.153Z,22.60
2022-12-13T15:52:05.073Z,21.50
2022-12-13T15:54:33.938Z,18.97
2022-12-13T15:57:12.386Z,18.27
2022-12-13T15:59:42.973Z,19.10
2022-12-13T16:02:16.918Z,17.27
2022-12-13T16:04:44.875Z,18.13
2022-12-13T16:07:24.248Z,16.23
2022-12-13T16:09:54.707Z,20.70
2022-12-13T16:12:25.743Z,20.90
2022-12-13T16:15:13.887Z,21.23
2022-12-13T16:18:06.423Z,25.07
2022-12-13T16:20:34.589Z,20.17
2022-12-13T16:23:08.939Z,20.63
2022-12-13T16:25:37.335Z,18.20
2022-12-13T16:28:05.551Z,17.70
2022-12-13T16:30:59.619Z,18.13
2022-12-13T16:33:27.933Z,19.80
2022-12-13T16:35:56.394Z,19.33
2022-12-13T16:38:26.744Z,18.67
2022-12-13T16:40:56.514Z,18.13
2022-12-13T16:43:33.442Z,20.10
2022-12-13T16:47:13.384Z,19.37
2022-12-13T16:48:54.511Z,20.37
2022-12-13T16:51:23.127Z,20.73
2022-12-13T16:53:51.383Z,19.17
2022-12-13T16:56:21.718Z,18.67
2022-12-13T16:58:50.564Z,18.80
2022-12-13T17:01:21.335Z,21.80
2022-12-13T17:03:49.463Z,20.83
2022-12-13T17:06:22.530Z,20.67
2022-12-13T17:08:50.374Z,21.90
2022-12-13T17:11:18.688Z,20.67
2022-12-13T17:13:48.177Z,19.60
2022-12-13T17:16:16.463Z,21.17
2022-12-13T17:18:45.799Z,26.37
2022-12-13T17:21:14.391Z,20.60
2022-12-13T17:23:42.239Z,21.17
2022-12-13T17:26:11.995Z,19.80
2022-12-13T17:28:39.847Z,19.93
2022-12-13T17:31:08.890Z,21.83
2022-12-13T17:33:37.243Z,28.23
2022-12-13T17:36:08.562Z,27.30
2022-12-13T17:38:36.462Z,24.07
2022-12-13T17:41:04.937Z,21.53
2022-12-13T17:43:35.279Z,20.57
2022-12-13T17:46:05.759Z,21.60
2022-12-13T17:48:40.188Z,20.13
2022-12-13T17:51:11.589Z,22.73
2022-12-13T17:53:40.971Z,25.40
2022-12-13T17:56:11.913Z,21.90
2022-12-13T17:58:40.086Z,21.23
2022-12-13T18:01:13.195Z,18.13
2022-12-13T18:03:41.338Z,18.67
2022-12-13T18:06:10.964Z,19.67
2022-12-13T18:08:40.402Z,17.20
2022-12-13T18:13:57.740Z,18.33
2022-12-13T18:16:33.958Z,17.40
2022-12-13T18:19:05.958Z,17.37
2022-12-13T18:21:36.991Z,17.93
2022-12-13T18:24:06.384Z,20.33
2022-12-13T18:26:35.236Z,17.87
2022-12-13T18:29:03.440Z,18.97
2022-12-13T18:31:31.590Z,20.60
2022-12-13T18:33:59.508Z,24.50
2022-12-13T18:36:27.803Z,18.30
2022-12-13T18:38:57.464Z,19.80
2022-12-13T18:41:28.276Z,17.60
2022-12-13T18:43:59.727Z,22.10
2022-12-13T18:46:29.330Z,20.17
2022-12-13T18:48:57.827Z,20.17
2022-12-13T18:51:26.215Z,19.23
2022-12-13T18:53:54.529Z,17.87
2022-12-13T18:56:24.118Z,21.80
2022-12-13T18:58:53.398Z,20.20
2022-12-13T19:01:22.864Z,18.97
2022-12-13T19:03:52.264Z,19.20
2022-12-13T19:06:22.674Z,21.40
2022-12-13T19:08:51.381Z,19.67
2022-12-13T19:11:20.086Z,19.30
2022-12-13T19:13:49.827Z,21.33
2022-12-13T19:16:20.083Z,21.13
2022-12-13T19:18:48.358Z,21.53
2022-12-13T19:21:18.229Z,20.87
2022-12-13T19:23:51.308Z,22.17
2022-12-13T19:26:23.726Z,19.97
2022-12-13T19:28:53.118Z,20.63
2022-12-13T19:31:25.461Z,23.23
2022-12-13T19:33:56.945Z,20.90
2022-12-13T19:36:25.188Z,20.67
2022-12-13T19:38:53.052Z,20.33
2022-12-13T19:41:21.822Z,19.30
2022-12-13T19:43:52.946Z,21.30
2022-12-13T19:46:22.875Z,20.43
2022-12-13T19:48:51.112Z,20.53
2022-12-13T19:51:18.971Z,21.07
2022-12-13T19:53:46.792Z,25.57
2022-12-13T19:56:17.639Z,21.80
2022-12-13T19:58:46.287Z,19.13
2022-12-13T20:01:14.979Z,20.30
2022-12-13T20:03:46.256Z,19.03
2022-12-13T20:06:16.980Z,19.50
2022-12-13T20:08:45.148Z,17.60
2022-12-13T20:11:15.887Z,17.90
2022-12-13T20:13:44.068Z,17.07
2022-12-13T20:16:17.068Z,19.87
2022-12-13T20:18:46.945Z,18.77
2022-12-13T20:21:15.950Z,18.00
2022-12-13T20:23:48.990Z,18.07
2022-12-13T20:26:19.984Z,17.63
2022-12-13T20:28:48.058Z,19.13
2022-12-13T20:31:18.137Z,20.13
2022-12-13T20:33:48.175Z,19.70
2022-12-13T20:36:26.107Z,19.37
2022-12-13T20:38:56.029Z,18.93
2022-12-13T20:41:24.913Z,18.20
2022-12-13T20:43:53.729Z,19.17
2022-12-13T20:46:22.581Z,20.10
2022-12-13T20:48:52.793Z,18.40
2022-12-13T20:51:22.523Z,19.90
2022-12-13T20:53:51.428Z,18.63
2022-12-13T20:56:21.385Z,18.73
2022-12-13T20:58:50.386Z,18.73
2022-12-13T21:01:20.567Z,19.37
2022-12-13T21:03:49.293Z,19.60
2022-12-13T21:06:18.481Z,19.20
2022-12-13T21:08:52.453Z,19.37
2022-12-13T21:11:27.369Z,18.73
2022-12-13T21:14:03.744Z,20.73
2022-12-13T21:16:38.754Z,19.90
2022-12-13T21:19:07.537Z,18.37
2022-12-13T21:21:37.394Z,34.27
2022-12-13T21:24:05.953Z,23.43
2022-12-13T21:26:36.022Z,21.60
2022-12-13T21:29:07.733Z,20.20
2022-12-13T21:31:36.580Z,20.97
2022-12-13T21:34:05.687Z,22.50
2022-12-13T21:36:36.350Z,21.77
2022-12-13T21:39:06.486Z,21.23
2022-12-13T21:41:34.711Z,20.30
2022-12-13T21:44:02.797Z,20.50
2022-12-13T21:47:02.937Z,20.27
2022-12-13T21:49:19.155Z,20.90
2022-12-13T21:51:48.771Z,18.43
2022-12-13T21:54:17.933Z,22.13
2022-12-13T21:57:03.394Z,19.80
2022-12-13T21:59:31.833Z,19.43
2022-12-13T22:02:14.752Z,17.33
2022-12-13T22:04:44.766Z,19.80
2022-12-13T22:07:15.725Z,19.17
2022-12-13T22:09:44.194Z,19.43
2022-12-13T22:12:19.991Z,20.67
2022-12-13T22:14:48.529Z,19.90
2022-12-13T22:17:17.027Z,21.90
2022-12-13T22:19:48.546Z,22.13
2022-12-13T22:22:19.026Z,28.60
2022-12-13T22:24:52.938Z,22.33
2022-12-13T22:27:23.704Z,24.90
2022-12-13T22:29:52.394Z,24.60
2022-12-13T22:32:20.597Z,25.10
2022-12-13T22:34:48.638Z,21.67
2022-12-13T22:37:17.976Z,20.90
2022-12-13T22:39:45.877Z,22.27
2022-12-13T22:42:13.791Z,23.73
2022-12-13T22:44:41.657Z,20.33
2022-12-13T22:47:09.497Z,21.90
2022-12-13T22:49:37.369Z,18.90
2022-12-13T22:52:05.546Z,20.20
2022-12-13T22:54:35.960Z,19.37
2022-12-13T22:57:03.972Z,21.13
2022-12-13T22:59:31.985Z,21.10
2022-12-13T23:02:02.593Z,20.17
2022-12-13T23:04:31.694Z,22.40
2022-12-13T23:06:59.644Z,19.90
2022-12-13T23:09:27.760Z,18.87
2022-12-13T23:12:14.574Z,20.70
2022-12-13T23:14:42.474Z,21.13
2022-12-13T23:17:10.370Z,20.40
2022-12-13T23:19:48.976Z,21.23
2022-12-13T23:22:19.011Z,21.50
2022-12-13T23:24:46.850Z,18.90
2022-12-13T23:27:16.104Z,20.27
2022-12-13T23:29:43.979Z,19.63
2022-12-13T23:32:12.129Z,20.10
2022-12-13T23:34:39.993Z,19.73
2022-12-13T23:37:07.878Z,19.57
2022-12-13T23:39:35.728Z,18.87
2022-12-13T23:42:03.563Z,19.23
2022-12-13T23:44:32.762Z,19.03
2022-12-13T23:47:00.608Z,18.77
2022-12-13T23:49:28.983Z,21.33
2022-12-13T23:51:56.818Z,19.00
2022-12-13T23:54:24.672Z,19.50
2022-12-13T23:56:52.542Z,21.50
2022-12-13T23:59:20.385Z,20.97
